Time;durP1;ratioP1;P1;durP2;ratioP2;P2;SDS_P1;SDS_P2;PMS_P1;PMS_P2;Temp;Humidity;BMP_temperature;BMP_pressure;BME280_temperature;BME280_humidity;BME280_pressure;Samples;Min_cycle;Max_cycle;Signal;HPM_P1;HPM_P2
2023/07/20 00:00:35;;;;;;;4.78;2.70;;;19.50;97.70;;;;;;5050619;28;20052;-65
2023/07/20 00:03:25;;;;;;;6.63;2.95;;;19.50;97.80;;;;;;5053860;28;20050;-65
2023/07/20 00:06:11;;;;;;;5.03;2.58;;;19.50;97.80;;;;;;5051801;28;20647;-65
2023/07/20 00:08:58;;;;;;;5.20;3.17;;;19.50;97.90;;;;;;5057692;28;20041;-65
2023/07/20 00:11:53;;;;;;;8.00;2.60;;;19.50;97.90;;;;;;5052387;28;20095;-65
2023/07/20 00:14:38;;;;;;;4.13;2.73;;;19.40;98.00;;;;;;5052227;28;20039;-66
2023/07/20 00:17:24;;;;;;;4.63;2.58;;;19.40;97.90;;;;;;5051258;28;20082;-65
2023/07/20 00:20:11;;;;;;;4.95;2.65;;;19.50;98.00;;;;;;5050589;28;20040;-64
2023/07/20 00:22:58;;;;;;;5.20;2.63;;;19.40;98.10;;;;;;5057151;28;20046;-64
2023/07/20 00:25:43;;;;;;;4.40;2.50;;;19.50;98.10;;;;;;5051792;28;20147;-65
2023/07/20 00:28:29;;;;;;;4.35;2.70;;;19.50;98.20;;;;;;5049640;28;20037;-65
2023/07/20 00:31:15;;;;;;;7.18;2.88;;;19.50;98.20;;;;;;5051219;28;20104;-65
2023/07/20 00:34:01;;;;;;;4.57;2.38;;;19.40;98.20;;;;;;5052532;28;20059;-65
2023/07/20 00:36:48;;;;;;;3.75;2.42;;;19.50;98.20;;;;;;5050884;28;20092;-65
2023/07/20 00:39:34;;;;;;;4.65;2.63;;;19.50;98.30;;;;;;5058587;28;20397;-65
2023/07/20 00:42:20;;;;;;;6.47;3.20;;;19.50;98.30;;;;;;5052109;28;20029;-65
2023/07/20 00:45:07;;;;;;;3.75;2.80;;;19.50;98.30;;;;;;5051537;28;20048;-65
2023/07/20 00:47:53;;;;;;;3.10;2.30;;;19.50;98.30;;;;;;5062817;28;20046;-66
2023/07/20 00:50:40;;;;;;;6.57;2.90;;;19.50;98.40;;;;;;5051363;28;20037;-66
2023/07/20 00:53:26;;;;;;;6.57;2.80;;;19.50;98.40;;;;;;5051067;28;20075;-65
2023/07/20 00:56:12;;;;;;;4.35;2.50;;;19.50;98.40;;;;;;5051352;28;20031;-66
2023/07/20 00:58:58;;;;;;;3.72;2.50;;;19.40;98.40;;;;;;5051021;28;20040;-65
2023/07/20 01:01:44;;;;;;;4.40;3.10;;;19.40;98.50;;;;;;5069378;28;20040;-66
2023/07/20 01:04:31;;;;;;;3.65;2.78;;;19.40;98.60;;;;;;5059065;28;20508;-67
2023/07/20 01:07:44;;;;;;;4.03;2.75;;;19.40;98.60;;;;;;5059855;28;20067;-65
2023/07/20 01:10:33;;;;;;;4.38;2.53;;;19.30;98.60;;;;;;5050800;28;20112;-65
2023/07/20 01:13:21;;;;;;;3.85;2.92;;;19.30;98.60;;;;;;5050769;28;20037;-66
2023/07/20 01:16:07;;;;;;;6.22;3.25;;;19.30;98.60;;;;;;5069304;28;20389;-67
2023/07/20 01:18:52;;;;;;;4.22;3.00;;;19.20;98.70;;;;;;5054169;28;20078;-67
2023/07/20 01:22:01;;;;;;;4.32;2.83;;;19.20;98.80;;;;;;5067742;28;20048;-67
2023/07/20 01:25:06;;;;;;;4.53;2.88;;;19.20;98.80;;;;;;5049341;28;20037;-66
2023/07/20 01:28:09;;;;;;;5.90;3.23;;;19.20;98.80;;;;;;5069268;28;20101;-65
2023/07/20 01:30:58;;;;;;;3.40;2.67;;;19.20;98.80;;;;;;5057597;28;20497;-66
2023/07/20 01:33:46;;;;;;;3.92;2.53;;;19.10;98.90;;;;;;5051808;28;20043;-68
2023/07/20 01:36:35;;;;;;;5.88;2.95;;;19.10;98.90;;;;;;5054026;28;20139;-68
2023/07/20 01:39:22;;;;;;;4.50;2.92;;;19.10;98.90;;;;;;5060248;28;20098;-67
2023/07/20 01:42:08;;;;;;;4.38;2.60;;;19.10;98.90;;;;;;5050819;28;20481;-68
2023/07/20 01:44:55;;;;;;;4.45;3.13;;;19.10;99.00;;;;;;5063674;28;20086;-65
2023/07/20 01:47:40;;;;;;;7.03;3.10;;;19.10;99.00;;;;;;5060509;28;20047;-66
2023/07/20 01:50:27;;;;;;;6.28;2.92;;;19.00;99.10;;;;;;5054580;28;20482;-66
2023/07/20 01:53:13;;;;;;;5.10;2.90;;;19.00;99.00;;;;;;5051654;28;20039;-65
2023/07/20 01:55:59;;;;;;;4.72;2.63;;;19.00;99.00;;;;;;5049921;28;20742;-65
2023/07/20 01:58:45;;;;;;;3.90;2.88;;;19.00;99.00;;;;;;5049252;28;20119;-65
2023/07/20 02:01:31;;;;;;;3.65;2.50;;;19.00;99.10;;;;;;5065092;28;20036;-65
2023/07/20 02:04:17;;;;;;;5.43;3.00;;;19.00;99.10;;;;;;5062505;28;20041;-66
2023/07/20 02:07:03;;;;;;;5.18;2.85;;;19.00;99.20;;;;;;5062366;28;20039;-65
2023/07/20 02:09:49;;;;;;;4.88;2.70;;;19.00;99.20;;;;;;5066904;28;20112;-66
2023/07/20 02:12:35;;;;;;;5.20;3.30;;;19.00;99.20;;;;;;5053377;28;20873;-65
2023/07/20 02:15:22;;;;;;;5.13;4.03;;;18.90;99.20;;;;;;5064395;28;20040;-66
2023/07/20 02:18:08;;;;;;;5.25;3.50;;;18.80;99.10;;;;;;5059764;28;20124;-66
2023/07/20 02:20:54;;;;;;;4.43;3.03;;;18.80;99.10;;;;;;5051836;28;20020;-66
2023/07/20 02:23:40;;;;;;;5.82;3.67;;;18.80;99.10;;;;;;5065048;28;20042;-65
2023/07/20 02:26:26;;;;;;;7.90;4.05;;;18.80;99.10;;;;;;5055921;28;20031;-66
2023/07/20 02:29:12;;;;;;;5.03;3.33;;;18.80;99.20;;;;;;5049418;28;20114;-66
2023/07/20 02:31:58;;;;;;;11.38;4.22;;;18.70;99.20;;;;;;5064649;28;20028;-65
2023/07/20 02:34:43;;;;;;;4.90;3.67;;;18.70;99.30;;;;;;5052912;28;20082;-65
2023/07/20 02:37:29;;;;;;;7.57;3.45;;;18.70;99.30;;;;;;5049673;28;20107;-65
2023/07/20 02:40:15;;;;;;;7.45;4.03;;;18.70;99.40;;;;;;5048742;28;20449;-65
2023/07/20 02:43:01;;;;;;;6.47;4.00;;;18.60;99.50;;;;;;5048353;28;20112;-66
2023/07/20 02:45:50;;;;;;;7.57;4.35;;;18.60;99.50;;;;;;5062859;28;20032;-66
2023/07/20 02:48:36;;;;;;;4.75;3.85;;;18.60;99.80;;;;;;5050098;28;20065;-64
2023/07/20 02:51:22;;;;;;;7.28;4.03;;;18.60;99.60;;;;;;5055331;28;20183;-65
2023/07/20 02:54:08;;;;;;;5.47;4.32;;;18.60;99.70;;;;;;5060722;28;20375;-64
2023/07/20 02:56:54;;;;;;;8.55;4.40;;;18.60;99.60;;;;;;5049201;28;20021;-64
2023/07/20 02:59:40;;;;;;;6.97;4.43;;;18.60;99.60;;;;;;5049534;28;20116;-64
2023/07/20 03:02:25;;;;;;;6.03;4.00;;;18.60;99.60;;;;;;5053097;28;20063;-64
2023/07/20 03:05:11;;;;;;;5.32;4.35;;;18.60;99.60;;;;;;5055886;28;20050;-64
2023/07/20 03:08:03;;;;;;;8.73;4.78;;;18.60;99.60;;;;;;5053096;28;20033;-65
2023/07/20 03:10:49;;;;;;;6.65;5.20;;;18.50;99.60;;;;;;5059862;28;20091;-63
2023/07/20 03:13:34;;;;;;;8.82;5.63;;;18.50;99.60;;;;;;5063652;28;20040;-65
2023/07/20 03:16:21;;;;;;;7.97;5.80;;;18.40;99.80;;;;;;5052783;28;20059;-63
2023/07/20 03:19:07;;;;;;;9.18;6.07;;;18.40;99.90;;;;;;5052347;28;20041;-64
2023/07/20 03:21:53;;;;;;;8.00;5.50;;;18.40;99.90;;;;;;5053004;28;20507;-63
2023/07/20 03:24:39;;;;;;;8.90;5.95;;;18.30;99.90;;;;;;5052503;28;20140;-62
2023/07/20 03:27:25;;;;;;;7.88;5.75;;;18.40;99.90;;;;;;5039242;28;20029;-63
2023/07/20 03:30:11;;;;;;;7.43;5.75;;;18.40;99.90;;;;;;5051628;28;20071;-64
2023/07/20 03:32:57;;;;;;;7.75;5.60;;;18.40;99.90;;;;;;5037362;28;20148;-64
2023/07/20 03:35:43;;;;;;;7.65;5.38;;;18.40;99.80;;;;;;5052115;28;20546;-63
2023/07/20 03:38:29;;;;;;;8.65;5.53;;;18.40;99.90;;;;;;5052353;28;20036;-64
2023/07/20 03:41:16;;;;;;;7.20;5.20;;;18.50;99.90;;;;;;5064156;28;20064;-64
2023/07/20 03:44:02;;;;;;;6.95;5.53;;;18.50;99.90;;;;;;5069298;28;20417;-65
2023/07/20 03:46:48;;;;;;;7.93;5.97;;;18.50;99.90;;;;;;5053848;28;20032;-64
2023/07/20 03:49:34;;;;;;;9.32;6.82;;;18.60;99.90;;;;;;5053180;28;20064;-64
2023/07/20 03:52:20;;;;;;;8.35;6.70;;;18.60;99.90;;;;;;5037061;28;20051;-64
2023/07/20 03:55:06;;;;;;;7.80;6.93;;;18.60;99.90;;;;;;5052265;28;20311;-64
2023/07/20 03:57:52;;;;;;;11.02;8.93;;;18.60;99.70;;;;;;5054185;28;20073;-66
2023/07/20 04:00:38;;;;;;;11.38;7.63;;;18.60;99.90;;;;;;5052446;28;20032;-66
2023/07/20 04:03:26;;;;;;;9.85;7.25;;;18.60;99.90;;;;;;5051843;28;20032;-64
2023/07/20 04:06:14;;;;;;;8.77;6.07;;;18.60;99.80;;;;;;5050775;28;20044;-66
2023/07/20 04:09:00;;;;;;;7.60;6.07;;;18.50;99.80;;;;;;5051730;28;20414;-67
2023/07/20 04:11:46;;;;;;;7.00;5.28;;;18.40;99.90;;;;;;5052179;28;20502;-67
2023/07/20 04:14:32;;;;;;;6.40;4.97;;;18.40;99.90;;;;;;5054890;28;20029;-66
2023/07/20 04:17:18;;;;;;;5.78;4.43;;;18.40;99.90;;;;;;5070146;28;20047;-66
2023/07/20 04:20:05;;;;;;;7.28;5.43;;;18.40;99.90;;;;;;5055718;28;20390;-66
2023/07/20 04:22:51;;;;;;;6.50;4.47;;;18.40;99.90;;;;;;5052342;28;20055;-63
2023/07/20 04:25:39;;;;;;;6.72;4.20;;;18.40;99.90;;;;;;5052994;28;20037;-65
2023/07/20 04:28:25;;;;;;;5.88;4.22;;;18.40;99.90;;;;;;5050714;28;20071;-64
2023/07/20 04:31:15;;;;;;;10.63;5.45;;;18.50;99.90;;;;;;5051576;28;20140;-65
2023/07/20 04:34:01;;;;;;;6.28;4.45;;;18.50;99.90;;;;;;5051727;28;20111;-66
2023/07/20 04:36:47;;;;;;;7.18;4.82;;;18.40;99.90;;;;;;5052362;28;20060;-66
2023/07/20 04:39:33;;;;;;;7.68;4.80;;;18.50;99.90;;;;;;5071003;28;20484;-63
2023/07/20 04:42:20;;;;;;;5.88;4.22;;;18.50;99.90;;;;;;5063773;28;20059;-64
2023/07/20 04:45:06;;;;;;;4.95;4.38;;;18.40;99.90;;;;;;5052063;28;20037;-66
2023/07/20 04:47:52;;;;;;;7.20;5.25;;;18.50;99.90;;;;;;5051867;28;20087;-67
2023/07/20 04:50:40;;;;;;;5.97;4.72;;;18.50;99.90;;;;;;5050614;28;20068;-66
2023/07/20 04:53:26;;;;;;;8.73;4.80;;;18.60;99.90;;;;;;5050822;28;20044;-66
2023/07/20 04:56:12;;;;;;;5.57;4.53;;;18.60;99.90;;;;;;5049999;28;20048;-67
2023/07/20 04:58:58;;;;;;;5.28;4.32;;;18.70;99.90;;;;;;5060673;28;20555;-67
2023/07/20 05:01:44;;;;;;;6.90;4.38;;;18.80;99.90;;;;;;5053277;28;20071;-67
2023/07/20 05:04:30;;;;;;;6.43;4.22;;;18.80;99.90;;;;;;5058398;28;20036;-65
2023/07/20 05:07:16;;;;;;;5.80;4.78;;;18.90;99.80;;;;;;5050951;28;20036;-65
2023/07/20 05:10:02;;;;;;;7.13;4.68;;;19.00;99.70;;;;;;5049505;28;20036;-66
2023/07/20 05:12:48;;;;;;;8.55;5.03;;;19.00;99.60;;;;;;5050873;28;20041;-65
2023/07/20 05:15:35;;;;;;;5.82;4.78;;;19.10;99.40;;;;;;5056210;28;20444;-66
2023/07/20 05:18:21;;;;;;;6.20;4.47;;;19.00;99.40;;;;;;5064890;28;20036;-66
2023/07/20 05:21:07;;;;;;;4.72;3.75;;;19.00;99.60;;;;;;5052614;28;20037;-65
2023/07/20 05:23:53;;;;;;;5.85;4.10;;;19.10;99.40;;;;;;5050343;28;20060;-66
2023/07/20 05:26:39;;;;;;;5.22;3.60;;;19.10;99.20;;;;;;5055845;28;20386;-67
2023/07/20 05:29:25;;;;;;;5.40;3.95;;;19.10;99.10;;;;;;5070735;28;20404;-63
2023/07/20 05:32:12;;;;;;;5.13;3.92;;;19.20;99.10;;;;;;5059342;28;20041;-67
2023/07/20 05:34:58;;;;;;;4.93;3.15;;;19.20;98.90;;;;;;5066990;28;20037;-69
2023/07/20 05:37:45;;;;;;;9.27;4.57;;;19.30;98.90;;;;;;5051131;28;20052;-66
2023/07/20 05:40:31;;;;;;;4.38;3.30;;;19.30;98.70;;;;;;5040994;28;20608;-64
2023/07/20 05:43:17;;;;;;;5.15;3.03;;;19.40;98.50;;;;;;5069952;28;20115;-66
2023/07/20 05:46:04;;;;;;;6.30;3.17;;;19.50;98.40;;;;;;5058454;28;20409;-64
2023/07/20 05:48:50;;;;;;;5.72;3.60;;;19.60;98.40;;;;;;5070867;28;20029;-65
2023/07/20 05:51:36;;;;;;;4.22;2.80;;;19.70;98.20;;;;;;5050407;28;20033;-65
2023/07/20 05:54:23;;;;;;;5.53;2.97;;;19.70;97.90;;;;;;5050567;28;20537;-66
2023/07/20 05:57:10;;;;;;;4.30;2.80;;;19.90;97.80;;;;;;5054363;28;20055;-65
2023/07/20 05:59:55;;;;;;;8.32;4.28;;;20.00;97.70;;;;;;5052404;28;20041;-69
2023/07/20 06:02:42;;;;;;;4.38;3.10;;;20.10;97.50;;;;;;5046744;28;20461;-69
2023/07/20 06:05:29;;;;;;;6.03;3.72;;;20.20;97.40;;;;;;5051453;28;20482;-70
2023/07/20 06:08:16;;;;;;;18.63;4.13;;;20.20;97.20;;;;;;5047791;28;20037;-69
2023/07/20 06:11:02;;;;;;;6.35;3.20;;;20.30;97.10;;;;;;5049546;28;20028;-69
2023/07/20 06:13:48;;;;;;;9.43;4.32;;;20.30;96.90;;;;;;5064340;28;20039;-71
2023/07/20 06:16:34;;;;;;;7.50;3.67;;;20.30;96.70;;;;;;5052795;28;20094;-71
2023/07/20 06:19:19;;;;;;;11.05;4.88;;;20.30;96.50;;;;;;5066653;28;20048;-70
2023/07/20 06:22:05;;;;;;;10.50;4.03;;;20.30;96.50;;;;;;5047130;28;20055;-71
2023/07/20 06:24:51;;;;;;;11.52;3.80;;;20.30;96.40;;;;;;5048496;28;20048;-74
2023/07/20 06:27:37;;;;;;;8.18;4.50;;;20.20;96.40;;;;;;5050663;28;20090;-72
2023/07/20 06:30:24;;;;;;;8.90;4.05;;;20.20;96.50;;;;;;5047589;28;20114;-73
2023/07/20 06:33:10;;;;;;;5.10;3.88;;;20.20;96.60;;;;;;5049242;28;20025;-73
2023/07/20 06:35:56;;;;;;;5.70;3.88;;;20.20;96.40;;;;;;5047628;28;20401;-72
2023/07/20 06:38:42;;;;;;;7.80;4.20;;;20.20;96.30;;;;;;5048430;28;20043;-72
2023/07/20 06:41:28;;;;;;;5.30;3.85;;;20.20;96.20;;;;;;5048070;28;20040;-68
2023/07/20 06:44:14;;;;;;;5.72;3.65;;;20.30;96.10;;;;;;5056781;28;20090;-72
2023/07/20 06:47:00;;;;;;;6.45;3.70;;;20.40;96.10;;;;;;5048721;28;20048;-72
2023/07/20 06:49:46;;;;;;;5.28;3.20;;;20.50;96.00;;;;;;5048067;28;20033;-73
2023/07/20 06:52:33;;;;;;;5.40;3.03;;;20.50;95.90;;;;;;5053183;28;20498;-73
2023/07/20 06:55:18;;;;;;;4.13;3.05;;;20.60;95.70;;;;;;5060292;28;20025;-73
2023/07/20 06:58:04;;;;;;;10.68;2.97;;;20.70;95.50;;;;;;5046571;28;20032;-73
2023/07/20 07:00:51;;;;;;;5.20;2.63;;;20.70;95.10;;;;;;5057123;28;20111;-75
2023/07/20 07:03:37;;;;;;;3.13;2.08;;;20.70;94.80;;;;;;5048596;28;20076;-75
2023/07/20 07:06:23;;;;;;;5.53;2.40;;;20.70;94.60;;;;;;5048298;28;20044;-71
2023/07/20 07:09:09;;;;;;;5.72;2.28;;;20.70;94.50;;;;;;5049390;28;20109;-72
2023/07/20 07:11:54;;;;;;;7.65;2.03;;;20.70;94.20;;;;;;5056545;28;20119;-72
2023/07/20 07:14:40;;;;;;;2.05;1.60;;;20.70;94.00;;;;;;5049973;28;20486;-74
2023/07/20 07:17:26;;;;;;;1.67;1.33;;;20.60;93.60;;;;;;5049362;28;20386;-72
2023/07/20 07:20:12;;;;;;;2.95;2.03;;;20.50;93.50;;;;;;5046530;28;20114;-74
2023/07/20 07:22:58;;;;;;;3.22;1.83;;;20.50;93.50;;;;;;5052046;28;20044;-72
2023/07/20 07:25:44;;;;;;;1.98;1.35;;;20.50;93.60;;;;;;5061057;28;20040;-75
2023/07/20 07:28:31;;;;;;;5.10;2.10;;;20.50;93.70;;;;;;5047436;28;20041;-75
2023/07/20 07:31:17;;;;;;;4.95;1.73;;;20.60;93.90;;;;;;5049184;28;20509;-75
2023/07/20 07:34:04;;;;;;;2.95;1.40;;;20.70;93.80;;;;;;5047267;28;20056;-74
2023/07/20 07:36:50;;;;;;;2.05;1.55;;;20.80;93.60;;;;;;5057272;28;20131;-72
2023/07/20 07:39:36;;;;;;;2.70;1.48;;;20.90;93.00;;;;;;5057644;28;20032;-73
2023/07/20 07:42:22;;;;;;;2.42;1.00;;;21.00;92.50;;;;;;5047869;28;20044;-73
2023/07/20 07:45:08;;;;;;;2.22;1.48;;;21.00;92.00;;;;;;5048983;28;20096;-73
2023/07/20 07:47:54;;;;;;;2.45;1.10;;;21.10;92.00;;;;;;5048336;28;20033;-72
2023/07/20 07:50:40;;;;;;;2.20;1.25;;;21.20;91.90;;;;;;5052758;28;20066;-74
2023/07/20 07:53:26;;;;;;;1.83;1.25;;;21.30;91.50;;;;;;5052688;28;20079;-76
2023/07/20 07:56:12;;;;;;;1.27;1.10;;;21.40;91.70;;;;;;5049453;28;20076;-76
2023/07/20 07:58:58;;;;;;;2.38;1.15;;;21.50;91.90;;;;;;5043422;28;20032;-75
2023/07/20 08:01:44;;;;;;;2.90;1.65;;;21.70;91.90;;;;;;5053680;28;20776;-74
2023/07/20 08:04:30;;;;;;;2.65;1.30;;;21.70;91.10;;;;;;5050127;28;20041;-75
2023/07/20 08:09:51;;;;;;;2.13;1.15;;;21.90;90.80;;;;;;4646969;23;20050;-58
2023/07/20 08:12:37;;;;;;;1.25;1.13;;;22.00;90.60;;;;;;5029023;28;20033;-58
2023/07/20 08:15:23;;;;;;;1.55;1.13;;;22.10;89.70;;;;;;5025646;28;20397;-58
2023/07/20 08:18:09;;;;;;;1.05;0.93;;;22.30;88.50;;;;;;5014801;28;20042;-59
2023/07/20 08:20:55;;;;;;;1.20;1.10;;;22.40;88.10;;;;;;5012349;28;20048;-60
2023/07/20 08:23:41;;;;;;;1.08;0.90;;;22.50;88.20;;;;;;5029158;28;20445;-59
2023/07/20 08:26:27;;;;;;;3.42;1.60;;;22.50;86.70;;;;;;5018958;28;20042;-59
2023/07/20 08:29:13;;;;;;;1.35;1.13;;;22.40;86.90;;;;;;5031796;28;20040;-59
2023/07/20 08:31:59;;;;;;;1.33;1.00;;;22.40;86.40;;;;;;5023966;28;20083;-59
2023/07/20 08:34:45;;;;;;;2.05;1.13;;;22.50;86.10;;;;;;5012129;28;20116;-58
2023/07/20 08:37:31;;;;;;;1.95;1.10;;;22.50;85.80;;;;;;5029762;28;20034;-60
2023/07/20 08:40:18;;;;;;;4.25;1.30;;;22.60;85.60;;;;;;5028174;28;20038;-59
2023/07/20 08:43:04;;;;;;;1.63;1.38;;;22.60;85.70;;;;;;5022075;28;20025;-67
2023/07/20 08:45:51;;;;;;;1.88;1.13;;;22.70;85.90;;;;;;5022370;28;20052;-68
2023/07/20 08:48:38;;;;;;;4.22;1.00;;;22.70;86.50;;;;;;5015849;28;20580;-66
2023/07/20 08:51:25;;;;;;;0.85;0.70;;;22.80;86.10;;;;;;5032887;28;20084;-67
2023/07/20 08:54:13;;;;;;;2.15;0.88;;;22.80;85.80;;;;;;5032054;28;20034;-67
2023/07/20 08:57:02;;;;;;;1.10;0.93;;;22.90;85.90;;;;;;5011940;28;20184;-67
2023/07/20 08:59:49;;;;;;;3.70;1.23;;;22.80;85.30;;;;;;5015320;28;20061;-67
2023/07/20 09:02:42;;;;;;;2.58;1.40;;;22.80;84.80;;;;;;5022401;28;20041;-66
2023/07/20 09:05:28;;;;;;;1.85;1.13;;;22.80;84.30;;;;;;5019285;28;20049;-67
2023/07/20 09:08:14;;;;;;;7.05;1.70;;;22.80;83.90;;;;;;5018402;28;20088;-67
2023/07/20 09:11:00;;;;;;;7.00;2.28;;;22.70;83.60;;;;;;5026618;28;20512;-67
2023/07/20 09:13:46;;;;;;;3.38;1.25;;;22.60;83.60;;;;;;5024430;28;20421;-68
2023/07/20 09:16:32;;;;;;;2.10;1.10;;;22.70;83.50;;;;;;5026952;28;20504;-67
2023/07/20 09:19:18;;;;;;;1.80;0.95;;;22.70;82.90;;;;;;5021786;28;20127;-67
2023/07/20 09:22:05;;;;;;;1.25;1.00;;;22.80;83.00;;;;;;5000717;28;20558;-66
2023/07/20 09:24:52;;;;;;;0.80;0.80;;;22.90;83.10;;;;;;5020686;28;20049;-67
2023/07/20 09:27:39;;;;;;;1.10;0.93;;;23.00;82.90;;;;;;5010022;28;20077;-67
2023/07/20 09:30:26;;;;;;;1.27;0.80;;;23.10;82.40;;;;;;5016324;28;20041;-67
2023/07/20 09:33:20;;;;;;;1.52;0.75;;;23.30;82.40;;;;;;5014524;28;20430;-67
2023/07/20 09:36:06;;;;;;;1.02;0.93;;;23.40;82.10;;;;;;5027249;28;20041;-67
2023/07/20 09:38:52;;;;;;;1.52;0.90;;;23.50;82.00;;;;;;5028857;28;20033;-66
2023/07/20 09:41:42;;;;;;;1.92;1.02;;;23.60;81.30;;;;;;5011354;28;20045;-68
2023/07/20 09:44:28;;;;;;;1.20;1.00;;;23.80;81.70;;;;;;5029606;28;20099;-67
2023/07/20 09:47:22;;;;;;;6.65;1.17;;;23.80;80.40;;;;;;5010327;28;20513;-67
2023/07/20 09:50:10;;;;;;;1.25;0.77;;;23.80;80.00;;;;;;5012950;28;20041;-66
2023/07/20 09:52:56;;;;;;;1.13;0.93;;;23.80;80.20;;;;;;5027275;28;20087;-67
2023/07/20 09:55:44;;;;;;;0.70;0.70;;;23.80;79.80;;;;;;5030325;28;20132;-67
2023/07/20 09:58:32;;;;;;;0.63;0.63;;;23.70;79.30;;;;;;5028856;28;20041;-68
2023/07/20 10:01:21;;;;;;;0.93;0.63;;;23.60;78.70;;;;;;5047656;28;20120;-67
2023/07/20 10:04:11;;;;;;;1.30;1.00;;;23.40;78.40;;;;;;5034136;28;20065;-67
2023/07/20 10:07:02;;;;;;;4.40;1.23;;;23.20;78.30;;;;;;5012922;28;20030;-66
2023/07/20 10:09:48;;;;;;;3.65;1.10;;;23.00;78.70;;;;;;5012976;28;20056;-67
2023/07/20 10:12:35;;;;;;;8.20;1.70;;;22.80;78.90;;;;;;5027396;28;20048;-67
2023/07/20 10:15:42;;;;;;;4.43;1.17;;;22.60;79.50;;;;;;5022193;28;20560;-66
2023/07/20 10:18:35;;;;;;;4.05;1.38;;;22.60;79.70;;;;;;5017160;28;20044;-69
2023/07/20 10:21:22;;;;;;;2.80;1.35;;;22.60;80.10;;;;;;5010619;28;20041;-68
2023/07/20 10:24:11;;;;;;;1.42;0.82;;;22.60;80.60;;;;;;5025914;28;20390;-66
2023/07/20 10:26:58;;;;;;;1.52;1.13;;;22.60;81.10;;;;;;5010591;28;20037;-67
2023/07/20 10:29:44;;;;;;;1.65;0.90;;;22.70;81.20;;;;;;5009879;28;20072;-66
2023/07/20 10:32:30;;;;;;;1.08;0.98;;;22.80;81.50;;;;;;5010422;28;20088;-66
2023/07/20 10:35:17;;;;;;;1.80;1.10;;;22.80;80.70;;;;;;5008990;28;20074;-67
2023/07/20 10:38:04;;;;;;;2.28;1.08;;;22.60;81.00;;;;;;5012607;28;20512;-66
2023/07/20 10:40:56;;;;;;;1.85;1.42;;;22.50;81.10;;;;;;5015071;28;20087;-67
2023/07/20 10:43:45;;;;;;;6.38;1.00;;;22.40;80.90;;;;;;5020173;28;20044;-67
2023/07/20 10:46:34;;;;;;;1.17;0.90;;;22.40;80.80;;;;;;5008355;28;20030;-68
2023/07/20 10:49:26;;;;;;;1.60;1.13;;;22.50;80.30;;;;;;5026999;28;20095;-67
2023/07/20 10:52:12;;;;;;;1.98;1.00;;;22.40;80.40;;;;;;5026858;28;20045;-67
2023/07/20 10:55:11;;;;;;;3.17;1.10;;;22.40;80.70;;;;;;5015422;28;20034;-66
2023/07/20 10:58:15;;;;;;;1.70;1.33;;;22.20;81.60;;;;;;5022625;28;20041;-66
2023/07/20 11:01:03;;;;;;;1.83;1.00;;;22.20;82.50;;;;;;5015158;28;20141;-66
2023/07/20 11:03:50;;;;;;;1.05;0.75;;;22.30;82.90;;;;;;5013530;28;20077;-67
2023/07/20 11:06:38;;;;;;;1.60;0.90;;;22.40;82.40;;;;;;5019692;28;20486;-67
2023/07/20 11:09:25;;;;;;;2.10;1.33;;;22.40;82.10;;;;;;5009755;28;20054;-67
2023/07/20 11:12:13;;;;;;;1.95;1.02;;;22.50;82.10;;;;;;5025698;28;20090;-67
2023/07/20 11:14:59;;;;;;;3.67;1.80;;;22.50;82.50;;;;;;5008590;28;20034;-67
2023/07/20 11:17:45;;;;;;;16.65;14.90;;;22.60;82.70;;;;;;5014215;28;20033;-67
2023/07/20 11:20:31;;;;;;;8.63;6.97;;;22.60;82.40;;;;;;5013988;28;20037;-67
2023/07/20 11:23:17;;;;;;;4.07;2.28;;;22.70;82.60;;;;;;5019095;28;20045;-67
2023/07/20 11:26:03;;;;;;;2.80;1.58;;;22.70;81.80;;;;;;5022015;28;20050;-67
2023/07/20 11:28:51;;;;;;;3.78;1.52;;;22.80;81.20;;;;;;5036331;28;20123;-66
2023/07/20 11:31:42;;;;;;;1.23;1.10;;;22.80;81.40;;;;;;5042222;28;20040;-65
2023/07/20 11:34:31;;;;;;;2.47;1.10;;;22.90;81.40;;;;;;5032971;28;20026;-66
2023/07/20 11:37:18;;;;;;;1.70;1.00;;;23.00;81.40;;;;;;5042407;28;20076;-65
2023/07/20 11:40:05;;;;;;;1.13;0.85;;;23.00;81.30;;;;;;5031425;28;20502;-67
2023/07/20 11:42:51;;;;;;;2.00;1.20;;;23.20;80.80;;;;;;5013886;28;20112;-67
2023/07/20 11:45:38;;;;;;;4.38;1.20;;;23.20;81.00;;;;;;5013406;28;20057;-67
2023/07/20 11:48:24;;;;;;;1.58;1.00;;;23.30;81.00;;;;;;5012439;28;20096;-67
2023/07/20 11:51:14;;;;;;;2.17;1.10;;;23.40;80.90;;;;;;5012217;28;20057;-69
2023/07/20 11:54:02;;;;;;;1.63;1.00;;;23.40;80.80;;;;;;5014722;28;20044;-71
2023/07/20 11:56:48;;;;;;;0.90;0.65;;;23.50;80.20;;;;;;5028610;28;20037;-67
2023/07/20 11:59:34;;;;;;;1.05;0.65;;;23.50;79.70;;;;;;5039150;28;20025;-69
2023/07/20 12:02:20;;;;;;;1.17;0.70;;;23.60;79.10;;;;;;5013688;28;20041;-68
2023/07/20 12:05:07;;;;;;;0.88;0.68;;;23.60;78.60;;;;;;5028778;28;20037;-67
2023/07/20 12:07:54;;;;;;;0.80;0.80;;;23.60;77.60;;;;;;5021059;28;20233;-67
2023/07/20 12:10:43;;;;;;;3.47;0.95;;;23.60;77.20;;;;;;5013105;28;20030;-68
2023/07/20 12:13:42;;;;;;;1.55;0.80;;;23.60;77.70;;;;;;5021232;28;20037;-68
2023/07/20 12:16:29;;;;;;;2.85;1.05;;;23.50;77.80;;;;;;5028561;28;20076;-68
2023/07/20 12:19:15;;;;;;;0.80;0.77;;;23.40;77.80;;;;;;5015054;28;20041;-68
2023/07/20 12:22:01;;;;;;;4.82;1.00;;;23.30;78.00;;;;;;5015213;28;20045;-68
2023/07/20 12:24:52;;;;;;;2.67;0.73;;;23.10;77.70;;;;;;5018625;28;20034;-68
2023/07/20 12:27:38;;;;;;;0.88;0.70;;;22.90;78.10;;;;;;5025895;28;20072;-67
2023/07/20 12:30:24;;;;;;;2.13;0.95;;;22.80;77.80;;;;;;5024984;28;20042;-67
2023/07/20 12:33:11;;;;;;;4.72;1.10;;;22.90;77.70;;;;;;5020317;28;20034;-68
2023/07/20 12:36:01;;;;;;;3.17;1.60;;;22.80;77.40;;;;;;5019306;28;20069;-67
2023/07/20 12:38:47;;;;;;;2.40;0.85;;;22.90;77.40;;;;;;5029280;28;20105;-67
2023/07/20 12:41:33;;;;;;;0.82;0.63;;;22.90;77.50;;;;;;5022871;28;20060;-68
2023/07/20 12:44:19;;;;;;;2.13;0.93;;;22.90;77.00;;;;;;5028696;28;20041;-67
2023/07/20 12:47:05;;;;;;;1.92;1.00;;;22.90;76.80;;;;;;5026160;28;20033;-67
2023/07/20 12:49:51;;;;;;;1.02;0.52;;;23.00;76.90;;;;;;5021300;28;20033;-68
2023/07/20 12:52:38;;;;;;;1.50;0.68;;;23.10;76.10;;;;;;5026493;28;20073;-68
2023/07/20 12:55:24;;;;;;;6.38;1.15;;;23.10;75.50;;;;;;5024476;28;20034;-68
2023/07/20 12:58:11;;;;;;;0.88;0.88;;;23.20;75.30;;;;;;5026799;28;20132;-67
2023/07/20 13:00:57;;;;;;;0.55;0.55;;;23.30;75.70;;;;;;5020083;28;20139;-67
2023/07/20 13:03:43;;;;;;;1.10;0.70;;;23.40;75.30;;;;;;5021247;28;20346;-68
2023/07/20 13:06:29;;;;;;;0.93;0.80;;;23.40;74.40;;;;;;5019309;28;20030;-67
2023/07/20 13:09:15;;;;;;;1.13;0.70;;;23.50;73.80;;;;;;5015369;28;20049;-68
2023/07/20 13:12:01;;;;;;;0.75;0.65;;;23.60;73.20;;;;;;5026414;28;20041;-68
2023/07/20 13:14:47;;;;;;;4.00;1.20;;;23.70;72.20;;;;;;5025659;28;20479;-68
2023/07/20 13:17:34;;;;;;;0.93;0.68;;;23.80;71.50;;;;;;5019301;28;20033;-67
2023/07/20 13:20:20;;;;;;;3.13;0.98;;;23.90;69.30;;;;;;5012935;28;20029;-67
2023/07/20 13:23:06;;;;;;;0.73;0.60;;;23.80;67.40;;;;;;5027523;28;20053;-68
2023/07/20 13:25:51;;;;;;;4.90;0.82;;;23.80;68.20;;;;;;5024782;28;20124;-68
2023/07/20 13:28:37;;;;;;;0.88;0.57;;;23.90;68.00;;;;;;5024868;28;20179;-67
2023/07/20 13:31:24;;;;;;;0.70;0.60;;;24.00;66.80;;;;;;5026907;28;20088;-68
2023/07/20 13:34:09;;;;;;;0.98;0.73;;;24.10;65.40;;;;;;5029347;28;20084;-68
2023/07/20 13:36:55;;;;;;;2.03;0.52;;;24.00;64.80;;;;;;5027471;28;20064;-68
2023/07/20 13:39:41;;;;;;;1.55;0.52;;;24.10;65.50;;;;;;5020137;28;20628;-68
2023/07/20 13:42:27;;;;;;;1.67;0.80;;;24.20;65.20;;;;;;5012376;28;20029;-68
2023/07/20 13:45:13;;;;;;;1.20;0.73;;;24.40;64.60;;;;;;5011100;28;20081;-68
2023/07/20 13:47:59;;;;;;;0.60;0.55;;;24.50;64.00;;;;;;5012864;28;20046;-68
2023/07/20 13:50:46;;;;;;;2.40;0.82;;;24.50;62.60;;;;;;5027047;28;20064;-67
2023/07/20 13:53:32;;;;;;;1.20;0.82;;;24.50;61.10;;;;;;5021042;28;20101;-68
2023/07/20 13:56:18;;;;;;;1.48;0.93;;;24.50;62.40;;;;;;5019485;28;20363;-69
2023/07/20 13:59:04;;;;;;;3.35;0.90;;;24.60;62.20;;;;;;5016775;28;20623;-68
2023/07/20 14:01:49;;;;;;;1.65;0.82;;;24.70;62.10;;;;;;5009561;28;20056;-69
2023/07/20 14:04:36;;;;;;;5.28;0.63;;;24.80;61.40;;;;;;5011939;28;20054;-70
2023/07/20 14:07:22;;;;;;;4.68;0.90;;;24.80;62.00;;;;;;5016612;28;20041;-69
2023/07/20 14:10:08;;;;;;;1.95;0.80;;;24.70;62.00;;;;;;5035551;28;20071;-68
2023/07/20 14:12:54;;;;;;;1.52;1.00;;;24.70;62.60;;;;;;5031729;28;20455;-68
2023/07/20 14:15:40;;;;;;;2.50;1.17;;;24.70;62.90;;;;;;5039989;28;20021;-67
2023/07/20 14:18:26;;;;;;;1.58;0.63;;;24.70;62.30;;;;;;5029663;28;20522;-67
2023/07/20 14:21:12;;;;;;;5.80;0.90;;;24.80;61.80;;;;;;5012989;28;20132;-67
2023/07/20 14:23:58;;;;;;;0.70;0.60;;;24.90;62.00;;;;;;5019115;28;20042;-67
2023/07/20 14:26:44;;;;;;;2.67;0.70;;;25.10;61.10;;;;;;5015894;28;20530;-67
2023/07/20 14:29:31;;;;;;;0.85;0.60;;;25.10;60.50;;;;;;5023139;28;20037;-69